Time;durP1;ratioP1;P1;durP2;ratioP2;P2;SDS_P1;SDS_P2;PMS_P1;PMS_P2;Temp;Humidity;BMP_temperature;BMP_pressure;BME280_temperature;BME280_humidity;BME280_pressure;Samples;Min_cycle;Max_cycle;Signal;HPM_P1;HPM_P2
2022/11/11 00:00:45;;;;;;;;;;;21.90;45.10;;;;;;491664;240;1280;-46
2022/11/11 00:02:48;;;;;;;;;;;22.00;45.10;;;;;;491699;240;1281;-47
2022/11/11 00:04:47;;;;;;;;;;;21.90;45.10;;;;;;491722;240;2026;-47
2022/11/11 00:06:49;;;;;;;;;;;22.00;45.10;;;;;;491708;240;1236;-48
2022/11/11 00:08:50;;;;;;;;;;;22.00;45.10;;;;;;492170;240;1519;-46
2022/11/11 00:10:51;;;;;;;;;;;22.00;45.10;;;;;;492010;240;1209;-47
2022/11/11 00:12:53;;;;;;;;;;;21.90;45.00;;;;;;492037;240;1148;-47
2022/11/11 00:14:54;;;;;;;;;;;21.90;45.20;;;;;;491613;240;1399;-46
2022/11/11 00:26:25;;;;;;;;;;;21.90;45.20;;;;;;485698;245;1456;-47
2022/11/11 00:28:26;;;;;;;;;;;21.90;45.20;;;;;;474625;250;1623;-48
2022/11/11 00:30:28;;;;;;;;;;;22.00;45.20;;;;;;474788;251;1345;-46
2022/11/11 00:32:32;;;;;;;;;;;22.00;45.20;;;;;;474782;251;1399;-46
2022/11/11 00:34:31;;;;;;;;;;;22.00;45.30;;;;;;474825;251;2000;-47
2022/11/11 00:36:32;;;;;;;;;;;22.00;45.30;;;;;;474689;251;1343;-47
2022/11/11 00:38:46;;;;;;;;;;;21.90;45.20;;;;;;475065;251;2169;-48
2022/11/11 00:40:47;;;;;;;;;;;22.00;45.10;;;;;;474636;251;1274;-47
2022/11/11 00:42:48;;;;;;;;;;;22.00;45.20;;;;;;474608;251;1363;-47
2022/11/11 00:44:50;;;;;;;;;;;22.00;45.20;;;;;;474646;251;1338;-47
2022/11/11 00:51:29;;;;;;;;;;;22.00;45.40;;;;;;476961;249;1499;-47
2022/11/11 00:53:31;;;;;;;;;;;21.90;45.30;;;;;;474894;250;1279;-46
2022/11/11 00:55:32;;;;;;;;;;;22.00;45.30;;;;;;476877;250;2137;-47
2022/11/11 00:57:33;;;;;;;;;;;21.90;45.30;;;;;;477953;245;1412;-48
2022/11/11 00:59:34;;;;;;;;;;;21.90;45.30;;;;;;485638;245;2200;-46
2022/11/11 01:01:36;;;;;;;;;;;21.90;45.40;;;;;;483475;246;1294;-47
2022/11/11 01:03:37;;;;;;;;;;;22.00;45.50;;;;;;484625;245;1275;-46
2022/11/11 01:05:38;;;;;;;;;;;21.90;45.30;;;;;;484651;246;1263;-47
2022/11/11 01:07:40;;;;;;;;;;;22.00;46.00;;;;;;484014;246;1227;-47
2022/11/11 01:09:41;;;;;;;;;;;22.00;46.00;;;;;;484610;246;1220;-48
2022/11/11 01:11:42;;;;;;;;;;;22.00;45.80;;;;;;484453;246;1231;-46
2022/11/11 01:13:44;;;;;;;;;;;22.00;46.10;;;;;;484478;246;1230;-47
2022/11/11 01:15:45;;;;;;;;;;;22.00;45.90;;;;;;484428;246;1200;-47
2022/11/11 01:17:47;;;;;;;;;;;22.00;46.10;;;;;;484188;246;1259;-46
2022/11/11 01:19:48;;;;;;;;;;;22.00;45.90;;;;;;484519;246;2196;-47
2022/11/11 01:21:49;;;;;;;;;;;21.90;45.70;;;;;;484634;246;1285;-47
2022/11/11 01:23:51;;;;;;;;;;;22.00;45.80;;;;;;484486;246;1308;-46
2022/11/11 01:25:52;;;;;;;;;;;22.00;46.00;;;;;;484648;246;1224;-47
2022/11/11 01:27:53;;;;;;;;;;;22.00;45.90;;;;;;484536;246;1192;-47
2022/11/11 01:29:55;;;;;;;;;;;22.00;46.70;;;;;;484201;246;1195;-47
2022/11/11 01:31:56;;;;;;;;;;;22.00;46.50;;;;;;484187;246;1552;-47
2022/11/11 01:33:57;;;;;;;;;;;22.00;47.20;;;;;;484646;246;1263;-46
2022/11/11 01:35:59;;;;;;;;;;;22.00;47.70;;;;;;484430;246;1627;-47
2022/11/11 01:38:00;;;;;;;;;;;22.10;48.40;;;;;;484193;246;1236;-47
2022/11/11 01:40:01;;;;;;;;;;;22.00;48.80;;;;;;484363;246;2171;-46
2022/11/11 01:42:03;;;;;;;;;;;21.90;49.30;;;;;;483997;246;1625;-47
2022/11/11 01:44:04;;;;;;;;;;;22.00;48.80;;;;;;484149;246;1489;-47
2022/11/11 01:46:05;;;;;;;;;;;22.00;49.30;;;;;;484019;246;1516;-47
2022/11/11 01:50:26;;;;;;;;;;;21.90;46.40;;;;;;484299;246;1239;-47
2022/11/11 01:52:27;;;;;;;;;;;22.00;46.40;;;;;;484217;246;1237;-47
2022/11/11 01:54:28;;;;;;;;;;;22.10;46.00;;;;;;484637;246;1238;-48
2022/11/11 01:56:30;;;;;;;;;;;22.00;46.00;;;;;;484285;246;1227;-47
2022/11/11 01:58:31;;;;;;;;;;;22.00;45.90;;;;;;484422;246;1721;-47
2022/11/11 02:00:32;;;;;;;;;;;22.00;45.80;;;;;;484167;246;2141;-47
2022/11/11 02:02:34;;;;;;;;;;;22.00;45.80;;;;;;484577;246;1380;-46
2022/11/11 02:06:55;;;;;;;;;;;22.00;46.10;;;;;;484592;246;1254;-46
2022/11/11 02:08:56;;;;;;;;;;;22.00;46.00;;;;;;484473;246;1234;-48
2022/11/11 02:10:57;;;;;;;;;;;21.90;46.60;;;;;;484144;246;1430;-47
2022/11/11 02:15:18;;;;;;;;;;;22.00;47.00;;;;;;484222;246;1302;-47
2022/11/11 02:17:19;;;;;;;;;;;22.00;47.00;;;;;;484179;246;1321;-47
2022/11/11 02:19:21;;;;;;;;;;;22.00;47.40;;;;;;484422;246;2164;-48
2022/11/11 02:21:22;;;;;;;;;;;22.00;47.60;;;;;;484162;246;1536;-47
2022/11/11 02:23:23;;;;;;;;;;;22.00;47.70;;;;;;484431;246;1247;-47
2022/11/11 02:25:24;;;;;;;;;;;22.10;48.50;;;;;;484274;246;1336;-46
2022/11/11 02:27:26;;;;;;;;;;;22.10;48.90;;;;;;484153;246;1352;-47
2022/11/11 02:29:27;;;;;;;;;;;22.00;49.50;;;;;;484176;246;1199;-46
2022/11/11 02:31:29;;;;;;;;;;;22.00;49.00;;;;;;484383;246;1287;-47
2022/11/11 02:33:30;;;;;;;;;;;22.10;49.40;;;;;;484577;246;1250;-47
2022/11/11 02:35:31;;;;;;;;;;;22.10;59.70;;;;;;484358;246;1346;-47
2022/11/11 02:37:33;;;;;;;;;;;22.10;58.30;;;;;;484146;246;1522;-47
2022/11/11 02:39:34;;;;;;;;;;;22.00;57.40;;;;;;484590;246;2164;-47
2022/11/11 02:43:55;;;;;;;;;;;22.10;56.90;;;;;;484214;246;1293;-46
2022/11/11 02:45:56;;;;;;;;;;;22.00;57.30;;;;;;484071;246;1479;-47
2022/11/11 02:47:58;;;;;;;;;;;22.00;57.30;;;;;;484280;246;1605;-47
2022/11/11 02:49:59;;;;;;;;;;;21.90;57.70;;;;;;484188;246;1758;-47
2022/11/11 02:52:00;;;;;;;;;;;21.90;57.30;;;;;;484437;246;1352;-47
2022/11/11 02:54:02;;;;;;;;;;;21.90;57.70;;;;;;484146;246;1213;-47
2022/11/11 02:56:03;;;;;;;;;;;21.90;57.70;;;;;;484100;246;1237;-48
2022/11/11 02:58:04;;;;;;;;;;;22.00;57.90;;;;;;484648;246;1237;-47
2022/11/11 03:00:06;;;;;;;;;;;21.90;57.80;;;;;;484407;246;2153;-46
2022/11/11 03:02:07;;;;;;;;;;;21.90;58.00;;;;;;484155;246;1245;-47
2022/11/11 03:04:08;;;;;;;;;;;21.90;57.60;;;;;;484169;246;1333;-47
2022/11/11 03:06:10;;;;;;;;;;;21.90;57.10;;;;;;484619;246;1196;-46
2022/11/11 03:08:11;;;;;;;;;;;22.00;57.40;;;;;;484485;246;1361;-47
2022/11/11 03:10:12;;;;;;;;;;;21.90;57.10;;;;;;484586;246;1263;-47
2022/11/11 03:12:14;;;;;;;;;;;21.90;57.40;;;;;;484557;246;1182;-46
2022/11/11 03:14:15;;;;;;;;;;;22.00;57.70;;;;;;484618;246;1277;-47
2022/11/11 03:17:38;;;;;;;;;;;21.90;57.60;;;;;;484228;246;1225;-46
2022/11/11 03:18:29;;;;;;;;;;;21.90;57.70;;;;;;482848;246;1305;-46
2022/11/11 03:22:49;;;;;;;;;;;21.90;57.60;;;;;;484139;246;1319;-46
2022/11/11 03:27:10;;;;;;;;;;;21.90;57.60;;;;;;484161;246;1254;-47
2022/11/11 03:29:11;;;;;;;;;;;22.00;57.40;;;;;;484130;246;1259;-47
2022/11/11 03:31:12;;;;;;;;;;;22.00;57.60;;;;;;484245;246;1588;-46
2022/11/11 03:33:14;;;;;;;;;;;21.90;57.90;;;;;;484230;246;1242;-47
2022/11/11 03:35:15;;;;;;;;;;;22.00;57.90;;;;;;484150;246;1237;-47
2022/11/11 03:39:36;;;;;;;;;;;22.00;48.30;;;;;;484405;246;2148;-46
2022/11/11 03:41:37;;;;;;;;;;;21.90;45.60;;;;;;484654;246;1334;-47
2022/11/11 03:43:39;;;;;;;;;;;21.80;45.20;;;;;;484170;246;1363;-47
2022/11/11 03:45:40;;;;;;;;;;;21.80;45.10;;;;;;484231;246;1315;-48
2022/11/11 03:47:41;;;;;;;;;;;21.80;45.10;;;;;;484434;246;1276;-46
2022/11/11 03:49:44;;;;;;;;;;;21.80;45.10;;;;;;484189;246;1188;-47
2022/11/11 03:51:44;;;;;;;;;;;21.80;45.10;;;;;;484249;246;1431;-46
2022/11/11 03:53:46;;;;;;;;;;;21.80;45.00;;;;;;484165;246;1659;-47
2022/11/11 03:55:47;;;;;;;;;;;21.80;45.00;;;;;;484560;246;1242;-47
2022/11/11 03:57:48;;;;;;;;;;;21.90;45.00;;;;;;484601;246;1206;-46
2022/11/11 03:59:50;;;;;;;;;;;21.80;45.00;;;;;;484214;246;2136;-46
2022/11/11 04:11:27;;;;;;;;;;;21.80;45.00;;;;;;459059;260;1343;-46
2022/11/11 04:16:06;;;;;;;;;;;21.80;45.00;;;;;;458790;260;1259;-46
2022/11/11 04:18:07;;;;;;;;;;;21.80;45.00;;;;;;460796;259;1294;-47
2022/11/11 04:22:27;;;;;;;;;;;21.90;45.00;;;;;;460772;259;1369;-47
2022/11/11 04:26:48;;;;;;;;;;;21.80;45.00;;;;;;460770;259;1445;-47
2022/11/11 04:31:08;;;;;;;;;;;21.80;45.00;;;;;;460577;259;1638;-47
2022/11/11 04:33:10;;;;;;;;;;;21.80;44.90;;;;;;458895;259;1473;-47
2022/11/11 04:35:11;;;;;;;;;;;21.90;44.90;;;;;;465296;246;1351;-47
2022/11/11 04:37:12;;;;;;;;;;;21.90;44.90;;;;;;485176;246;1342;-47
2022/11/11 04:41:33;;;;;;;;;;;21.80;45.00;;;;;;485280;246;2168;-47
2022/11/11 04:45:26;;;;;;;;;;;21.90;45.00;;;;;;485325;246;1502;-47
2022/11/11 04:45:37;;;;;;;;;;;21.90;44.90;;;;;;483696;246;1336;-47
2022/11/11 04:47:38;;;;;;;;;;;21.90;44.90;;;;;;485493;246;1441;-48
2022/11/11 04:49:39;;;;;;;;;;;21.90;44.90;;;;;;485486;246;1203;-46
2022/11/11 04:54:00;;;;;;;;;;;21.80;44.90;;;;;;485272;246;1316;-46
2022/11/11 04:58:20;;;;;;;;;;;21.80;44.90;;;;;;485468;246;1198;-47
2022/11/11 05:00:22;;;;;;;;;;;21.80;45.00;;;;;;485463;246;2204;-47
2022/11/11 05:04:43;;;;;;;;;;;21.80;45.00;;;;;;485172;246;1258;-47
2022/11/11 05:09:03;;;;;;;;;;;21.90;45.00;;;;;;485346;246;1219;-46
2022/11/11 05:11:04;;;;;;;;;;;21.80;44.90;;;;;;485158;246;1265;-46
2022/11/11 05:22:52;;;;;;;;;;;21.90;44.80;;;;;;455652;261;1371;-47
2022/11/11 05:27:13;;;;;;;;;;;21.90;44.80;;;;;;455560;261;1379;-46
2022/11/11 05:29:14;;;;;;;;;;;21.90;44.90;;;;;;455463;261;1308;-46
2022/11/11 05:31:15;;;;;;;;;;;21.90;44.80;;;;;;455073;262;1291;-47
2022/11/11 05:33:16;;;;;;;;;;;21.80;44.80;;;;;;455253;262;1315;-47
2022/11/11 05:35:18;;;;;;;;;;;21.80;44.80;;;;;;455358;262;1313;-47
2022/11/11 05:37:19;;;;;;;;;;;21.80;44.80;;;;;;455202;261;1268;-46
2022/11/11 05:39:21;;;;;;;;;;;21.90;44.90;;;;;;455385;261;1373;-46
2022/11/11 05:41:22;;;;;;;;;;;21.80;44.80;;;;;;455452;261;2183;-47
2022/11/11 05:43:23;;;;;;;;;;;21.80;44.80;;;;;;455457;261;1382;-47
2022/11/11 05:45:24;;;;;;;;;;;21.80;44.90;;;;;;455277;261;1342;-47
2022/11/11 05:47:26;;;;;;;;;;;21.90;44.80;;;;;;455412;261;1413;-47
2022/11/11 05:49:27;;;;;;;;;;;21.90;44.90;;;;;;462379;254;1635;-46
2022/11/11 05:51:28;;;;;;;;;;;21.80;44.90;;;;;;469298;254;1713;-47
2022/11/11 05:53:30;;;;;;;;;;;21.80;44.90;;;;;;469202;254;1290;-47
2022/11/11 05:55:32;;;;;;;;;;;21.80;44.90;;;;;;469320;254;1398;-47
2022/11/11 05:57:33;;;;;;;;;;;21.90;44.80;;;;;;478892;243;1361;-46
2022/11/11 05:59:34;;;;;;;;;;;21.80;44.80;;;;;;491536;242;1691;-48
2022/11/11 06:01:36;;;;;;;;;;;21.90;44.80;;;;;;484667;246;2179;-47
2022/11/11 06:03:37;;;;;;;;;;;21.90;44.80;;;;;;484181;246;1326;-46
2022/11/11 06:05:38;;;;;;;;;;;21.90;44.80;;;;;;484301;246;1138;-47
2022/11/11 06:07:39;;;;;;;;;;;21.90;44.80;;;;;;484123;246;1168;-47
2022/11/11 06:09:41;;;;;;;;;;;21.90;44.80;;;;;;484307;246;1248;-47
2022/11/11 06:11:42;;;;;;;;;;;21.80;44.80;;;;;;484168;246;1198;-47
2022/11/11 06:13:44;;;;;;;;;;;21.80;44.90;;;;;;484175;246;1269;-47
2022/11/11 06:15:45;;;;;;;;;;;21.80;45.00;;;;;;484405;246;1226;-46
2022/11/11 06:17:46;;;;;;;;;;;21.80;44.90;;;;;;484260;246;1209;-46
2022/11/11 06:19:47;;;;;;;;;;;21.80;44.90;;;;;;484419;246;1226;-47
2022/11/11 06:21:59;;;;;;;;;;;21.80;44.80;;;;;;483970;246;2199;-47
2022/11/11 06:23:59;;;;;;;;;;;21.80;44.90;;;;;;484161;246;1765;-48
2022/11/11 06:26:12;;;;;;;;;;;21.80;44.90;;;;;;484091;246;1202;-47
2022/11/11 06:28:14;;;;;;;;;;;21.80;44.90;;;;;;484096;246;1368;-46
2022/11/11 06:30:15;;;;;;;;;;;21.80;44.80;;;;;;484091;246;1249;-47
2022/11/11 06:32:16;;;;;;;;;;;21.90;44.80;;;;;;484109;246;1230;-47
2022/11/11 06:34:18;;;;;;;;;;;21.90;44.80;;;;;;484128;246;1267;-47
2022/11/11 06:36:19;;;;;;;;;;;21.80;44.80;;;;;;484350;246;1223;-46
2022/11/11 06:38:21;;;;;;;;;;;21.90;44.90;;;;;;484136;246;1215;-47
2022/11/11 06:40:23;;;;;;;;;;;21.80;44.80;;;;;;484291;246;1249;-46
2022/11/11 06:42:23;;;;;;;;;;;21.80;44.80;;;;;;484218;246;2179;-47
2022/11/11 06:44:25;;;;;;;;;;;21.80;44.80;;;;;;484011;246;1355;-47
2022/11/11 06:46:26;;;;;;;;;;;21.80;44.80;;;;;;484274;246;1236;-46
2022/11/11 06:48:27;;;;;;;;;;;21.80;44.80;;;;;;484139;246;1256;-47
2022/11/11 06:50:29;;;;;;;;;;;21.80;44.80;;;;;;484229;246;1316;-47
2022/11/11 06:52:30;;;;;;;;;;;21.90;44.80;;;;;;484334;246;1350;-46
2022/11/11 06:54:31;;;;;;;;;;;21.80;44.80;;;;;;484212;246;1229;-46
2022/11/11 06:56:33;;;;;;;;;;;21.80;44.80;;;;;;484520;246;1209;-47
2022/11/11 06:58:34;;;;;;;;;;;21.80;44.80;;;;;;484090;246;1236;-47
2022/11/11 07:00:35;;;;;;;;;;;21.80;44.80;;;;;;484029;246;2149;-46
2022/11/11 07:02:36;;;;;;;;;;;21.80;44.80;;;;;;484032;246;1265;-47
2022/11/11 07:04:38;;;;;;;;;;;21.80;44.80;;;;;;483957;246;1273;-47
2022/11/11 07:06:39;;;;;;;;;;;21.80;44.70;;;;;;484104;246;1340;-47
2022/11/11 07:08:43;;;;;;;;;;;21.90;44.80;;;;;;484068;246;1233;-46
2022/11/11 07:10:42;;;;;;;;;;;21.90;44.70;;;;;;483939;246;1930;-47
2022/11/11 07:12:43;;;;;;;;;;;21.90;44.70;;;;;;484066;246;1283;-47
2022/11/11 07:14:45;;;;;;;;;;;21.90;44.60;;;;;;483852;246;1253;-47
2022/11/11 07:16:46;;;;;;;;;;;21.90;44.60;;;;;;484150;246;1657;-47
2022/11/11 07:18:47;;;;;;;;;;;21.90;44.50;;;;;;484024;246;1202;-46
2022/11/11 07:20:49;;;;;;;;;;;21.90;44.60;;;;;;484282;246;2184;-47
2022/11/11 07:22:50;;;;;;;;;;;21.80;44.50;;;;;;483947;246;1228;-46
2022/11/11 07:24:51;;;;;;;;;;;21.90;44.50;;;;;;484294;246;1197;-47
2022/11/11 07:26:52;;;;;;;;;;;21.90;44.40;;;;;;483893;246;1232;-46
2022/11/11 07:28:54;;;;;;;;;;;21.90;44.40;;;;;;483974;246;1278;-47
2022/11/11 07:30:55;;;;;;;;;;;21.90;44.40;;;;;;484082;246;1353;-46
2022/11/11 07:32:56;;;;;;;;;;;21.80;44.40;;;;;;483938;246;1263;-47
2022/11/11 07:34:58;;;;;;;;;;;21.90;44.40;;;;;;484245;246;1224;-48
2022/11/11 07:36:59;;;;;;;;;;;21.90;44.40;;;;;;482948;242;1336;-47
2022/11/11 07:39:00;;;;;;;;;;;21.90;44.20;;;;;;483727;246;1246;-47
2022/11/11 07:41:02;;;;;;;;;;;21.90;44.30;;;;;;483934;246;2188;-47
2022/11/11 07:43:03;;;;;;;;;;;21.90;44.30;;;;;;484187;246;1251;-48
2022/11/11 07:45:04;;;;;;;;;;;21.90;44.30;;;;;;484083;246;1221;-46
2022/11/11 07:47:06;;;;;;;;;;;21.90;44.20;;;;;;484288;246;1244;-47
2022/11/11 07:49:07;;;;;;;;;;;21.90;44.20;;;;;;484039;246;1196;-47
2022/11/11 07:51:08;;;;;;;;;;;21.90;44.20;;;;;;483929;246;1229;-47
2022/11/11 07:53:10;;;;;;;;;;;22.00;44.20;;;;;;484010;246;1274;-47
2022/11/11 07:55:11;;;;;;;;;;;22.00;44.10;;;;;;483972;246;1518;-47
2022/11/11 07:57:12;;;;;;;;;;;22.00;44.20;;;;;;483953;246;1271;-46
2022/11/11 07:59:14;;;;;;;;;;;21.90;44.10;;;;;;483928;246;1179;-47
2022/11/11 08:01:15;;;;;;;;;;;22.00;44.10;;;;;;483777;246;2152;-47
2022/11/11 08:03:16;;;;;;;;;;;21.90;44.00;;;;;;483871;246;1306;-47
2022/11/11 08:05:18;;;;;;;;;;;22.00;44.10;;;;;;484204;246;1261;-47
2022/11/11 08:07:19;;;;;;;;;;;22.00;44.00;;;;;;483615;246;1154;-47
2022/11/11 08:09:20;;;;;;;;;;;22.00;44.00;;;;;;483869;246;1242;-46
2022/11/11 08:13:43;;;;;;;;;;;21.90;44.00;;;;;;483764;246;1503;-46
2022/11/11 08:15:44;;;;;;;;;;;22.00;44.00;;;;;;483743;246;1224;-46
2022/11/11 08:17:45;;;;;;;;;;;22.00;44.20;;;;;;483856;246;1182;-46
2022/11/11 08:19:47;;;;;;;;;;;21.90;44.20;;;;;;483836;246;1261;-46
2022/11/11 08:21:48;;;;;;;;;;;22.00;44.90;;;;;;483819;246;2128;-47
2022/11/11 08:23:50;;;;;;;;;;;22.00;45.00;;;;;;483807;246;1211;-46
2022/11/11 08:25:51;;;;;;;;;;;22.00;44.90;;;;;;483773;246;2112;-46
2022/11/11 08:27:52;;;;;;;;;;;22.00;46.40;;;;;;483931;246;1211;-47
2022/11/11 08:29:53;;;;;;;;;;;22.00;46.30;;;;;;483812;246;1184;-46
2022/11/11 08:31:56;;;;;;;;;;;22.10;45.60;;;;;;483952;246;1217;-49
2022/11/11 08:33:56;;;;;;;;;;;22.10;45.50;;;;;;483725;246;2024;-50
2022/11/11 08:35:58;;;;;;;;;;;22.10;47.30;;;;;;483886;246;1611;-51
2022/11/11 08:37:59;;;;;;;;;;;22.10;46.20;;;;;;483670;246;1249;-49
2022/11/11 08:40:00;;;;;;;;;;;22.20;46.00;;;;;;483624;246;1212;-49
2022/11/11 08:42:02;;;;;;;;;;;22.10;44.20;;;;;;483797;246;2164;-49
2022/11/11 08:44:03;;;;;;;;;;;22.10;44.00;;;;;;482930;246;1249;-49
2022/11/11 08:46:04;;;;;;;;;;;22.10;44.00;;;;;;483423;246;1603;-49
2022/11/11 08:48:05;;;;;;;;;;;22.10;44.00;;;;;;483843;246;1363;-49
2022/11/11 08:50:07;;;;;;;;;;;22.10;44.00;;;;;;483695;246;1319;-49
2022/11/11 08:52:08;;;;;;;;;;;22.10;44.10;;;;;;483687;246;1473;-49
2022/11/11 08:54:10;;;;;;;;;;;22.10;44.10;;;;;;483780;246;1231;-50
2022/11/11 08:56:11;;;;;;;;;;;22.10;44.10;;;;;;483625;246;1645;-49
2022/11/11 08:58:12;;;;;;;;;;;22.10;44.10;;;;;;483791;246;1244;-49
2022/11/11 09:00:14;;;;;;;;;;;22.10;44.10;;;;;;483798;246;1250;-50
2022/11/11 09:02:15;;;;;;;;;;;22.10;44.10;;;;;;483610;246;2188;-49
2022/11/11 09:04:17;;;;;;;;;;;22.10;44.20;;;;;;483733;246;1170;-49
2022/11/11 09:06:18;;;;;;;;;;;22.10;44.10;;;;;;483825;243;1287;-49
2022/11/11 09:08:19;;;;;;;;;;;22.20;44.10;;;;;;483744;246;1391;-49
2022/11/11 09:10:21;;;;;;;;;;;22.20;44.10;;;;;;483774;246;1226;-49
2022/11/11 09:12:22;;;;;;;;;;;22.20;44.20;;;;;;483550;246;1389;-50
2022/11/11 09:14:24;;;;;;;;;;;22.20;44.10;;;;;;483743;246;1264;-49
2022/11/11 09:16:25;;;;;;;;;;;22.20;44.20;;;;;;483728;246;1216;-50
2022/11/11 09:18:26;;;;;;;;;;;22.20;44.30;;;;;;483905;242;1105;-49
2022/11/11 09:20:28;;;;;;;;;;;22.20;44.40;;;;;;483659;246;1282;-50
2022/11/11 09:22:29;;;;;;;;;;;22.20;44.40;;;;;;483855;246;2184;-49
2022/11/11 09:24:30;;;;;;;;;;;22.20;44.30;;;;;;483646;246;1263;-49
2022/11/11 09:26:31;;;;;;;;;;;22.20;44.20;;;;;;483624;246;1239;-49
2022/11/11 09:28:33;;;;;;;;;;;22.20;44.20;;;;;;483732;246;1330;-50
2022/11/11 09:30:34;;;;;;;;;;;22.20;44.20;;;;;;483723;246;1266;-50
2022/11/11 09:32:36;;;;;;;;;;;22.20;44.20;;;;;;483620;246;1269;-50
2022/11/11 09:34:37;;;;;;;;;;;22.20;44.20;;;;;;483647;246;1319;-50
2022/11/11 09:36:38;;;;;;;;;;;22.20;44.20;;;;;;483740;246;1250;-49
2022/11/11 09:38:40;;;;;;;;;;;22.30;44.20;;;;;;482355;242;1584;-49
2022/11/11 09:40:41;;;;;;;;;;;22.20;44.20;;;;;;483763;246;1227;-49
2022/11/11 09:42:42;;;;;;;;;;;22.30;44.10;;;;;;483649;246;2187;-49
2022/11/11 09:44:44;;;;;;;;;;;22.30;44.10;;;;;;483838;246;1349;-49
2022/11/11 09:46:45;;;;;;;;;;;22.30;44.10;;;;;;483856;246;1200;-49
2022/11/11 09:48:47;;;;;;;;;;;22.30;44.10;;;;;;483729;246;1318;-49
2022/11/11 09:50:53;;;;;;;;;;;22.30;44.10;;;;;;483669;246;1429;-49
2022/11/11 09:52:49;;;;;;;;;;;22.30;44.10;;;;;;483288;246;2033;-49
2022/11/11 09:54:50;;;;;;;;;;;22.30;44.10;;;;;;483899;246;1314;-49
2022/11/11 09:56:52;;;;;;;;;;;22.30;44.00;;;;;;483817;246;1226;-48
2022/11/11 09:58:53;;;;;;;;;;;22.30;44.10;;;;;;483958;246;1402;-51
2022/11/11 10:00:54;;;;;;;;;;;22.30;44.20;;;;;;483901;246;1261;-50
2022/11/11 10:02:56;;;;;;;;;;;22.30;44.00;;;;;;483803;246;2176;-50
2022/11/11 10:04:57;;;;;;;;;;;22.30;44.10;;;;;;483900;246;1186;-49
2022/11/11 10:06:58;;;;;;;;;;;22.40;44.10;;;;;;484199;246;1263;-49
2022/11/11 10:09:01;;;;;;;;;;;22.30;44.10;;;;;;484008;246;1279;-49
2022/11/11 10:11:01;;;;;;;;;;;22.30;44.10;;;;;;483863;246;2009;-49
2022/11/11 10:13:03;;;;;;;;;;;22.30;44.10;;;;;;483822;246;1170;-49
2022/11/11 10:15:04;;;;;;;;;;;22.30;44.20;;;;;;483680;246;1263;-50
2022/11/11 10:17:05;;;;;;;;;;;22.30;44.20;;;;;;483792;246;1740;-49
2022/11/11 10:19:07;;;;;;;;;;;22.40;44.20;;;;;;483716;246;1190;-51
2022/11/11 10:21:08;;;;;;;;;;;22.30;44.10;;;;;;483794;246;1273;-50
2022/11/11 10:23:10;;;;;;;;;;;22.30;44.10;;;;;;483831;246;2148;-50
2022/11/11 10:25:11;;;;;;;;;;;22.30;44.10;;;;;;483978;246;1156;-50
2022/11/11 10:27:12;;;;;;;;;;;22.30;44.10;;;;;;483792;246;1170;-49
2022/11/11 10:29:14;;;;;;;;;;;22.30;44.10;;;;;;483791;246;1298;-50
2022/11/11 10:31:15;;;;;;;;;;;22.30;44.10;;;;;;483918;246;1284;-49
2022/11/11 10:33:17;;;;;;;;;;;22.30;44.10;;;;;;483862;246;1190;-50
2022/11/11 10:35:18;;;;;;;;;;;22.30;44.00;;;;;;484075;246;1200;-50
2022/11/11 10:37:19;;;;;;;;;;;22.30;44.00;;;;;;483807;246;1220;-50
2022/11/11 10:39:21;;;;;;;;;;;22.30;44.10;;;;;;484074;246;1286;-50
2022/11/11 10:41:22;;;;;;;;;;;22.30;44.10;;;;;;484139;246;1089;-50
2022/11/11 10:43:23;;;;;;;;;;;22.30;44.10;;;;;;483889;246;2203;-51
2022/11/11 10:45:25;;;;;;;;;;;22.30;44.10;;;;;;483839;246;1194;-50
2022/11/11 10:47:26;;;;;;;;;;;22.30;44.20;;;;;;483875;246;1484;-50
2022/11/11 10:49:27;;;;;;;;;;;22.30;44.20;;;;;;483672;246;1259;-50
2022/11/11 10:51:29;;;;;;;;;;;22.30;44.10;;;;;;483771;246;1299;-50
2022/11/11 10:53:30;;;;;;;;;;;22.30;44.10;;;;;;484152;246;1179;-50
2022/11/11 10:55:31;;;;;;;;;;;22.30;44.10;;;;;;483941;246;1249;-50
2022/11/11 10:57:33;;;;;;;;;;;22.20;44.10;;;;;;483817;246;1217;-50
2022/11/11 10:59:34;;;;;;;;;;;22.30;44.20;;;;;;483867;246;1324;-51
2022/11/11 11:01:35;;;;;;;;;;;22.20;44.10;;;;;;483895;246;1210;-51
2022/11/11 11:03:37;;;;;;;;;;;22.20;44.10;;;;;;483760;246;2235;-51
2022/11/11 11:05:38;;;;;;;;;;;22.20;44.10;;;;;;483477;246;1579;-50
2022/11/11 11:07:39;;;;;;;;;;;22.20;44.10;;;;;;483906;246;1267;-50
2022/11/11 11:09:41;;;;;;;;;;;22.20;44.10;;;;;;484008;246;1256;-50
2022/11/11 11:11:42;;;;;;;;;;;22.30;44.10;;;;;;483880;246;1268;-50
2022/11/11 11:13:43;;;;;;;;;;;22.30;44.00;;;;;;483840;246;1315;-50
2022/11/11 11:15:48;;;;;;;;;;;22.30;44.00;;;;;;483850;246;1462;-50
2022/11/11 11:17:46;;;;;;;;;;;22.30;44.00;;;;;;483795;246;2233;-50
2022/11/11 11:19:47;;;;;;;;;;;22.30;44.00;;;;;;483864;246;1254;-51
2022/11/11 11:21:49;;;;;;;;;;;22.30;44.00;;;;;;483834;246;1272;-50
2022/11/11 11:23:50;;;;;;;;;;;22.30;44.00;;;;;;483698;246;2153;-50
2022/11/11 11:25:51;;;;;;;;;;;22.30;44.10;;;;;;483866;246;1210;-50
2022/11/11 11:27:53;;;;;;;;;;;22.30;44.10;;;;;;483909;246;1202;-50
2022/11/11 11:29:55;;;;;;;;;;;22.20;44.10;;;;;;484251;246;1264;-50
2022/11/11 11:31:56;;;;;;;;;;;22.30;44.10;;;;;;483920;246;1380;-50
2022/11/11 11:33:58;;;;;;;;;;;22.20;44.10;;;;;;483862;246;1254;-50
2022/11/11 11:35:58;;;;;;;;;;;22.20;44.10;;;;;;484090;246;1278;-50
2022/11/11 11:38:00;;;;;;;;;;;22.30;44.10;;;;;;484162;246;1242;-50
2022/11/11 11:40:01;;;;;;;;;;;22.20;44.10;;;;;;484025;246;1229;-50
2022/11/11 11:42:02;;;;;;;;;;;22.20;44.20;;;;;;484054;246;1208;-50
2022/11/11 11:44:04;;;;;;;;;;;22.20;44.20;;;;;;483888;246;2260;-50
2022/11/11 11:46:05;;;;;;;;;;;22.20;44.20;;;;;;484006;246;1348;-50
2022/11/11 11:48:06;;;;;;;;;;;22.20;44.20;;;;;;484074;246;1260;-51
2022/11/11 11:50:08;;;;;;;;;;;22.20;44.20;;;;;;483898;246;1207;-49
2022/11/11 11:52:09;;;;;;;;;;;22.10;44.30;;;;;;483924;246;1242;-49
2022/11/11 11:54:10;;;;;;;;;;;22.20;44.20;;;;;;483919;246;1273;-49
2022/11/11 11:56:12;;;;;;;;;;;22.20;44.20;;;;;;483988;246;1210;-49
2022/11/11 11:58:13;;;;;;;;;;;22.20;44.30;;;;;;484054;246;1199;-49
2022/11/11 12:00:14;;;;;;;;;;;22.20;44.20;;;;;;484079;246;1280;-50
2022/11/11 12:02:16;;;;;;;;;;;22.20;44.20;;;;;;483823;246;1362;-49
2022/11/11 12:04:17;;;;;;;;;;;22.20;44.10;;;;;;483789;246;2133;-49
2022/11/11 12:06:18;;;;;;;;;;;22.30;44.10;;;;;;483926;246;1262;-50
2022/11/11 12:08:20;;;;;;;;;;;22.30;44.10;;;;;;484150;246;1228;-49
2022/11/11 12:10:21;;;;;;;;;;;22.20;44.00;;;;;;483814;246;1268;-49
2022/11/11 12:12:22;;;;;;;;;;;22.30;44.10;;;;;;483949;246;1273;-50
2022/11/11 12:14:24;;;;;;;;;;;22.30;44.10;;;;;;483927;246;1218;-48
2022/11/11 12:16:25;;;;;;;;;;;22.30;44.10;;;;;;483939;246;1237;-49
2022/11/11 12:18:26;;;;;;;;;;;22.30;44.00;;;;;;483818;246;1230;-49
2022/11/11 12:20:28;;;;;;;;;;;22.30;44.00;;;;;;484025;246;1137;-49
2022/11/11 12:22:29;;;;;;;;;;;22.30;44.00;;;;;;484005;246;1268;-50
2022/11/11 12:24:30;;;;;;;;;;;22.30;44.10;;;;;;483926;246;1527;-49
2022/11/11 12:26:33;;;;;;;;;;;22.40;44.00;;;;;;483890;246;1223;-49
2022/11/11 12:28:33;;;;;;;;;;;22.40;44.10;;;;;;483594;246;1740;-49
2022/11/11 12:30:35;;;;;;;;;;;22.30;43.90;;;;;;483808;246;1413;-49
2022/11/11 12:32:36;;;;;;;;;;;22.30;44.00;;;;;;483846;246;1205;-49
2022/11/11 12:34:38;;;;;;;;;;;22.40;44.10;;;;;;483780;246;1248;-49
2022/11/11 12:36:39;;;;;;;;;;;22.40;44.10;;;;;;483871;242;1626;-49
2022/11/11 12:38:40;;;;;;;;;;;22.40;44.20;;;;;;484368;246;1268;-49
2022/11/11 12:40:42;;;;;;;;;;;22.40;44.30;;;;;;483868;246;1286;-50
2022/11/11 12:42:43;;;;;;;;;;;22.30;44.20;;;;;;483783;246;2164;-49
2022/11/11 12:44:44;;;;;;;;;;;22.30;44.20;;;;;;483964;246;1381;-50
2022/11/11 12:46:45;;;;;;;;;;;22.40;44.40;;;;;;483791;246;1593;-49
2022/11/11 12:48:47;;;;;;;;;;;22.40;44.20;;;;;;484238;246;1674;-49
2022/11/11 12:50:48;;;;;;;;;;;22.40;44.00;;;;;;484059;246;1693;-50
2022/11/11 12:52:49;;;;;;;;;;;22.40;44.10;;;;;;483961;246;1214;-50
2022/11/11 12:54:51;;;;;;;;;;;22.40;44.00;;;;;;484002;246;1311;-49
2022/11/11 12:56:52;;;;;;;;;;;22.40;44.10;;;;;;484018;246;1450;-50
2022/11/11 12:58:54;;;;;;;;;;;22.40;44.10;;;;;;483917;246;1310;-50
2022/11/11 13:00:55;;;;;;;;;;;22.40;44.10;;;;;;484290;246;1230;-50
2022/11/11 13:02:56;;;;;;;;;;;22.30;44.00;;;;;;484109;246;2172;-50
2022/11/11 13:04:58;;;;;;;;;;;22.40;44.00;;;;;;483915;246;1281;-50
2022/11/11 13:06:59;;;;;;;;;;;22.40;44.00;;;;;;483951;246;1231;-49
2022/11/11 13:09:00;;;;;;;;;;;22.40;44.10;;;;;;484118;246;1789;-49
2022/11/11 13:11:02;;;;;;;;;;;22.40;44.00;;;;;;484182;246;1246;-50
2022/11/11 13:13:03;;;;;;;;;;;22.30;44.00;;;;;;483755;246;1200;-50